sensor_id;sensor_type;location;lat;lon;timestamp;P1;durP1;ratioP1;P2;durP2;ratioP2
9294;SDS011;4686;44.496;11.324;2022-10-12T00:00:58;29.90;;;22.30;;
9294;SDS011;4686;44.496;11.324;2022-10-12T00:03:26;27.37;;;22.30;;
9294;SDS011;4686;44.496;11.324;2022-10-12T00:06:00;30.47;;;22.60;;
9294;SDS011;4686;44.496;11.324;2022-10-12T00:08:29;30.37;;;22.90;;
9294;SDS011;4686;44.496;11.324;2022-10-12T00:10:57;30.50;;;23.30;;
9294;SDS011;4686;44.496;11.324;2022-10-12T00:13:24;24.57;;;21.20;;
9294;SDS011;4686;44.496;11.324;2022-10-12T00:15:51;26.90;;;22.63;;
9294;SDS011;4686;44.496;11.324;2022-10-12T00:18:19;30.30;;;22.80;;
9294;SDS011;4686;44.496;11.324;2022-10-12T00:20:46;28.67;;;23.27;;
9294;SDS011;4686;44.496;11.324;2022-10-12T00:23:13;25.97;;;23.20;;
9294;SDS011;4686;44.496;11.324;2022-10-12T00:25:42;28.17;;;22.97;;
9294;SDS011;4686;44.496;11.324;2022-10-12T00:28:09;31.37;;;24.77;;
9294;SDS011;4686;44.496;11.324;2022-10-12T00:30:38;24.27;;;21.77;;
9294;SDS011;4686;44.496;11.324;2022-10-12T00:33:06;25.23;;;22.03;;
9294;SDS011;4686;44.496;11.324;2022-10-12T00:35:33;31.03;;;22.97;;
9294;SDS011;4686;44.496;11.324;2022-10-12T00:38:01;29.63;;;23.40;;
9294;SDS011;4686;44.496;11.324;2022-10-12T00:40:28;28.17;;;23.00;;
9294;SDS011;4686;44.496;11.324;2022-10-12T00:42:56;26.27;;;23.43;;
9294;SDS011;4686;44.496;11.324;2022-10-12T00:45:24;28.17;;;24.40;;
9294;SDS011;4686;44.496;11.324;2022-10-12T00:47:53;25.53;;;22.70;;
9294;SDS011;4686;44.496;11.324;2022-10-12T00:50:23;29.03;;;23.77;;
9294;SDS011;4686;44.496;11.324;2022-10-12T00:52:54;26.40;;;23.60;;
9294;SDS011;4686;44.496;11.324;2022-10-12T00:55:24;30.83;;;23.23;;
9294;SDS011;4686;44.496;11.324;2022-10-12T00:57:52;26.10;;;22.07;;
9294;SDS011;4686;44.496;11.324;2022-10-12T01:00:22;26.97;;;22.97;;
9294;SDS011;4686;44.496;11.324;2022-10-12T01:02:50;26.47;;;23.10;;
9294;SDS011;4686;44.496;11.324;2022-10-12T01:05:19;26.60;;;23.73;;
9294;SDS011;4686;44.496;11.324;2022-10-12T01:07:47;38.33;;;24.00;;
9294;SDS011;4686;44.496;11.324;2022-10-12T01:10:14;28.90;;;24.70;;
9294;SDS011;4686;44.496;11.324;2022-10-12T01:12:42;31.80;;;24.70;;
9294;SDS011;4686;44.496;11.324;2022-10-12T01:15:10;29.53;;;24.00;;
9294;SDS011;4686;44.496;11.324;2022-10-12T01:17:42;27.30;;;24.43;;
9294;SDS011;4686;44.496;11.324;2022-10-12T01:23:24;31.33;;;24.90;;
9294;SDS011;4686;44.496;11.324;2022-10-12T01:26:03;25.87;;;23.07;;
9294;SDS011;4686;44.496;11.324;2022-10-12T01:28:33;27.13;;;24.20;;
9294;SDS011;4686;44.496;11.324;2022-10-12T01:31:06;35.60;;;26.30;;
9294;SDS011;4686;44.496;11.324;2022-10-12T01:33:35;28.80;;;23.23;;
9294;SDS011;4686;44.496;11.324;2022-10-12T01:36:05;26.30;;;23.50;;
9294;SDS011;4686;44.496;11.324;2022-10-12T01:38:35;26.20;;;23.40;;
9294;SDS011;4686;44.496;11.324;2022-10-12T01:41:08;27.27;;;23.40;;
9294;SDS011;4686;44.496;11.324;2022-10-12T01:43:37;27.90;;;24.50;;
9294;SDS011;4686;44.496;11.324;2022-10-12T01:46:33;31.70;;;25.00;;
9294;SDS011;4686;44.496;11.324;2022-10-12T01:48:54;28.50;;;24.27;;
9294;SDS011;4686;44.496;11.324;2022-10-12T01:51:26;30.10;;;25.27;;
9294;SDS011;4686;44.496;11.324;2022-10-12T01:53:56;30.40;;;23.50;;
9294;SDS011;4686;44.496;11.324;2022-10-12T01:56:30;28.97;;;25.87;;
9294;SDS011;4686;44.496;11.324;2022-10-12T01:59:02;28.70;;;24.90;;
9294;SDS011;4686;44.496;11.324;2022-10-12T02:01:35;28.70;;;23.03;;
9294;SDS011;4686;44.496;11.324;2022-10-12T02:04:09;29.17;;;25.20;;
9294;SDS011;4686;44.496;11.324;2022-10-12T02:06:38;28.43;;;23.70;;
9294;SDS011;4686;44.496;11.324;2022-10-12T02:09:07;32.40;;;26.40;;
9294;SDS011;4686;44.496;11.324;2022-10-12T02:11:36;31.57;;;25.23;;
9294;SDS011;4686;44.496;11.324;2022-10-12T02:14:07;27.23;;;23.43;;
9294;SDS011;4686;44.496;11.324;2022-10-12T02:16:36;38.63;;;25.97;;
9294;SDS011;4686;44.496;11.324;2022-10-12T02:19:05;28.00;;;23.80;;
9294;SDS011;4686;44.496;11.324;2022-10-12T02:21:34;29.20;;;23.40;;
9294;SDS011;4686;44.496;11.324;2022-10-12T02:24:03;30.30;;;24.60;;
9294;SDS011;4686;44.496;11.324;2022-10-12T02:26:31;28.60;;;24.97;;
9294;SDS011;4686;44.496;11.324;2022-10-12T02:29:00;32.40;;;26.10;;
9294;SDS011;4686;44.496;11.324;2022-10-12T02:31:30;29.67;;;24.30;;
9294;SDS011;4686;44.496;11.324;2022-10-12T02:34:03;36.83;;;25.60;;
9294;SDS011;4686;44.496;11.324;2022-10-12T02:36:33;34.10;;;25.70;;
9294;SDS011;4686;44.496;11.324;2022-10-12T02:39:03;33.67;;;26.37;;
9294;SDS011;4686;44.496;11.324;2022-10-12T02:41:32;28.60;;;23.40;;
9294;SDS011;4686;44.496;11.324;2022-10-12T02:44:02;33.37;;;24.17;;
9294;SDS011;4686;44.496;11.324;2022-10-12T02:46:30;27.17;;;23.50;;
9294;SDS011;4686;44.496;11.324;2022-10-12T02:48:59;30.90;;;24.90;;
9294;SDS011;4686;44.496;11.324;2022-10-12T02:51:28;28.60;;;23.53;;
9294;SDS011;4686;44.496;11.324;2022-10-12T02:53:56;34.67;;;25.00;;
9294;SDS011;4686;44.496;11.324;2022-10-12T02:56:24;28.17;;;23.80;;
9294;SDS011;4686;44.496;11.324;2022-10-12T02:58:51;42.07;;;26.00;;
9294;SDS011;4686;44.496;11.324;2022-10-12T03:01:18;33.80;;;25.43;;
9294;SDS011;4686;44.496;11.324;2022-10-12T03:03:46;30.10;;;24.87;;
9294;SDS011;4686;44.496;11.324;2022-10-12T03:06:14;27.63;;;24.73;;
9294;SDS011;4686;44.496;11.324;2022-10-12T03:08:42;33.37;;;24.53;;
9294;SDS011;4686;44.496;11.324;2022-10-12T03:11:11;29.60;;;23.23;;
9294;SDS011;4686;44.496;11.324;2022-10-12T03:13:41;32.30;;;25.03;;
9294;SDS011;4686;44.496;11.324;2022-10-12T03:16:09;28.67;;;25.40;;
9294;SDS011;4686;44.496;11.324;2022-10-12T03:18:37;28.73;;;24.47;;
9294;SDS011;4686;44.496;11.324;2022-10-12T03:21:04;31.67;;;25.60;;
9294;SDS011;4686;44.496;11.324;2022-10-12T03:23:31;31.43;;;25.10;;
9294;SDS011;4686;44.496;11.324;2022-10-12T03:26:00;34.10;;;24.80;;
9294;SDS011;4686;44.496;11.324;2022-10-12T03:28:27;35.27;;;25.90;;
9294;SDS011;4686;44.496;11.324;2022-10-12T03:30:55;29.13;;;24.83;;
9294;SDS011;4686;44.496;11.324;2022-10-12T03:33:22;32.40;;;24.67;;
9294;SDS011;4686;44.496;11.324;2022-10-12T03:35:50;29.63;;;23.80;;
9294;SDS011;4686;44.496;11.324;2022-10-12T03:38:18;32.70;;;26.00;;
9294;SDS011;4686;44.496;11.324;2022-10-12T03:40:45;35.20;;;25.07;;
9294;SDS011;4686;44.496;11.324;2022-10-12T03:43:14;30.33;;;25.60;;
9294;SDS011;4686;44.496;11.324;2022-10-12T03:45:41;31.43;;;24.93;;
9294;SDS011;4686;44.496;11.324;2022-10-12T03:48:08;33.90;;;25.77;;
9294;SDS011;4686;44.496;11.324;2022-10-12T03:50:36;32.70;;;25.70;;
9294;SDS011;4686;44.496;11.324;2022-10-12T03:53:04;27.77;;;23.60;;
9294;SDS011;4686;44.496;11.324;2022-10-12T03:55:32;31.23;;;24.00;;
9294;SDS011;4686;44.496;11.324;2022-10-12T03:58:02;34.77;;;25.80;;
9294;SDS011;4686;44.496;11.324;2022-10-12T04:00:31;28.63;;;23.97;;
9294;SDS011;4686;44.496;11.324;2022-10-12T04:02:58;32.10;;;26.27;;
9294;SDS011;4686;44.496;11.324;2022-10-12T04:05:26;30.57;;;24.67;;
9294;SDS011;4686;44.496;11.324;2022-10-12T04:07:53;33.67;;;26.00;;
9294;SDS011;4686;44.496;11.324;2022-10-12T04:10:20;30.10;;;24.50;;
9294;SDS011;4686;44.496;11.324;2022-10-12T04:12:48;35.40;;;26.37;;
9294;SDS011;4686;44.496;11.324;2022-10-12T04:15:16;29.67;;;25.87;;
9294;SDS011;4686;44.496;11.324;2022-10-12T04:17:44;31.93;;;26.37;;
9294;SDS011;4686;44.496;11.324;2022-10-12T04:20:12;33.23;;;26.20;;
9294;SDS011;4686;44.496;11.324;2022-10-12T04:22:39;30.60;;;25.40;;
9294;SDS011;4686;44.496;11.324;2022-10-12T04:25:08;29.40;;;24.80;;
9294;SDS011;4686;44.496;11.324;2022-10-12T04:27:36;30.10;;;25.30;;
9294;SDS011;4686;44.496;11.324;2022-10-12T04:30:03;29.50;;;24.83;;
9294;SDS011;4686;44.496;11.324;2022-10-12T04:32:31;29.77;;;25.00;;
9294;SDS011;4686;44.496;11.324;2022-10-12T04:34:59;27.50;;;23.73;;
9294;SDS011;4686;44.496;11.324;2022-10-12T04:37:27;34.63;;;25.37;;
9294;SDS011;4686;44.496;11.324;2022-10-12T04:39:54;32.93;;;26.10;;
9294;SDS011;4686;44.496;11.324;2022-10-12T04:42:21;31.50;;;26.20;;
9294;SDS011;4686;44.496;11.324;2022-10-12T04:44:49;35.70;;;25.37;;
9294;SDS011;4686;44.496;11.324;2022-10-12T04:47:16;34.03;;;25.90;;
9294;SDS011;4686;44.496;11.324;2022-10-12T04:49:44;31.20;;;25.60;;
9294;SDS011;4686;44.496;11.324;2022-10-12T04:52:12;33.30;;;25.30;;
9294;SDS011;4686;44.496;11.324;2022-10-12T04:54:40;31.03;;;25.10;;
9294;SDS011;4686;44.496;11.324;2022-10-12T04:57:07;29.93;;;25.60;;
9294;SDS011;4686;44.496;11.324;2022-10-12T04:59:35;30.93;;;25.80;;
9294;SDS011;4686;44.496;11.324;2022-10-12T05:02:02;33.67;;;25.40;;
9294;SDS011;4686;44.496;11.324;2022-10-12T05:04:30;32.73;;;25.80;;
9294;SDS011;4686;44.496;11.324;2022-10-12T05:06:57;31.90;;;25.53;;
9294;SDS011;4686;44.496;11.324;2022-10-12T05:09:26;34.20;;;26.97;;
9294;SDS011;4686;44.496;11.324;2022-10-12T05:11:53;31.60;;;27.00;;
9294;SDS011;4686;44.496;11.324;2022-10-12T05:14:20;34.47;;;28.60;;
9294;SDS011;4686;44.496;11.324;2022-10-12T05:16:48;35.00;;;27.60;;
9294;SDS011;4686;44.496;11.324;2022-10-12T05:19:15;32.60;;;26.13;;
9294;SDS011;4686;44.496;11.324;2022-10-12T05:21:43;36.97;;;27.80;;
9294;SDS011;4686;44.496;11.324;2022-10-12T05:24:10;31.37;;;25.00;;
9294;SDS011;4686;44.496;11.324;2022-10-12T05:26:39;32.50;;;25.93;;
9294;SDS011;4686;44.496;11.324;2022-10-12T05:29:06;40.40;;;26.00;;
9294;SDS011;4686;44.496;11.324;2022-10-12T05:31:33;32.50;;;27.07;;
9294;SDS011;4686;44.496;11.324;2022-10-12T05:34:00;35.20;;;26.70;;
9294;SDS011;4686;44.496;11.324;2022-10-12T05:36:28;31.57;;;25.60;;
9294;SDS011;4686;44.496;11.324;2022-10-12T05:38:55;38.13;;;27.00;;
9294;SDS011;4686;44.496;11.324;2022-10-12T05:41:23;32.23;;;25.90;;
9294;SDS011;4686;44.496;11.324;2022-10-12T05:43:52;33.40;;;25.23;;
9294;SDS011;4686;44.496;11.324;2022-10-12T05:46:19;31.00;;;25.93;;
9294;SDS011;4686;44.496;11.324;2022-10-12T05:48:47;32.23;;;25.87;;
9294;SDS011;4686;44.496;11.324;2022-10-12T05:51:15;31.97;;;26.50;;
9294;SDS011;4686;44.496;11.324;2022-10-12T05:53:42;29.83;;;25.30;;
9294;SDS011;4686;44.496;11.324;2022-10-12T05:56:10;33.30;;;25.73;;
9294;SDS011;4686;44.496;11.324;2022-10-12T05:58:37;32.10;;;26.40;;
9294;SDS011;4686;44.496;11.324;2022-10-12T06:01:08;34.83;;;25.20;;
9294;SDS011;4686;44.496;11.324;2022-10-12T06:03:36;40.77;;;27.37;;
9294;SDS011;4686;44.496;11.324;2022-10-12T06:06:03;34.77;;;27.00;;
9294;SDS011;4686;44.496;11.324;2022-10-12T06:08:33;31.17;;;26.00;;
9294;SDS011;4686;44.496;11.324;2022-10-12T06:11:01;36.87;;;26.43;;
9294;SDS011;4686;44.496;11.324;2022-10-12T06:13:29;38.83;;;25.80;;
9294;SDS011;4686;44.496;11.324;2022-10-12T06:15:56;33.93;;;25.70;;
9294;SDS011;4686;44.496;11.324;2022-10-12T06:18:25;33.70;;;26.20;;
9294;SDS011;4686;44.496;11.324;2022-10-12T06:20:52;29.83;;;25.10;;
9294;SDS011;4686;44.496;11.324;2022-10-12T06:23:20;31.17;;;24.57;;
9294;SDS011;4686;44.496;11.324;2022-10-12T06:25:48;35.60;;;24.93;;
9294;SDS011;4686;44.496;11.324;2022-10-12T06:28:16;38.83;;;26.23;;
9294;SDS011;4686;44.496;11.324;2022-10-12T06:30:44;34.50;;;27.20;;
9294;SDS011;4686;44.496;11.324;2022-10-12T06:33:12;30.83;;;24.23;;
9294;SDS011;4686;44.496;11.324;2022-10-12T06:35:40;34.63;;;26.20;;
9294;SDS011;4686;44.496;11.324;2022-10-12T06:38:08;36.47;;;26.07;;
9294;SDS011;4686;44.496;11.324;2022-10-12T06:40:35;40.43;;;24.17;;
9294;SDS011;4686;44.496;11.324;2022-10-12T06:43:03;34.33;;;27.30;;
9294;SDS011;4686;44.496;11.324;2022-10-12T06:45:30;28.73;;;24.00;;
9294;SDS011;4686;44.496;11.324;2022-10-12T06:47:58;30.10;;;23.93;;
9294;SDS011;4686;44.496;11.324;2022-10-12T06:50:26;29.10;;;23.57;;
9294;SDS011;4686;44.496;11.324;2022-10-12T06:52:55;32.90;;;24.63;;
9294;SDS011;4686;44.496;11.324;2022-10-12T06:55:22;39.27;;;24.50;;
9294;SDS011;4686;44.496;11.324;2022-10-12T06:57:49;30.03;;;23.83;;
9294;SDS011;4686;44.496;11.324;2022-10-12T07:00:17;29.63;;;24.30;;
9294;SDS011;4686;44.496;11.324;2022-10-12T07:02:45;38.03;;;22.20;;
9294;SDS011;4686;44.496;11.324;2022-10-12T07:05:14;36.17;;;23.60;;
9294;SDS011;4686;44.496;11.324;2022-10-12T07:07:43;39.10;;;24.53;;
9294;SDS011;4686;44.496;11.324;2022-10-12T07:10:12;30.10;;;23.57;;
9294;SDS011;4686;44.496;11.324;2022-10-12T07:12:39;29.93;;;23.10;;
9294;SDS011;4686;44.496;11.324;2022-10-12T07:15:07;28.90;;;24.80;;
9294;SDS011;4686;44.496;11.324;2022-10-12T07:17:35;32.80;;;26.67;;
9294;SDS011;4686;44.496;11.324;2022-10-12T07:20:03;36.33;;;26.40;;
9294;SDS011;4686;44.496;11.324;2022-10-12T07:22:31;38.10;;;26.50;;
9294;SDS011;4686;44.496;11.324;2022-10-12T07:24:59;36.47;;;26.60;;
9294;SDS011;4686;44.496;11.324;2022-10-12T07:27:27;35.83;;;25.97;;
9294;SDS011;4686;44.496;11.324;2022-10-12T07:29:55;35.23;;;26.60;;
9294;SDS011;4686;44.496;11.324;2022-10-12T07:32:22;32.90;;;28.40;;
9294;SDS011;4686;44.496;11.324;2022-10-12T07:34:50;41.93;;;30.63;;
9294;SDS011;4686;44.496;11.324;2022-10-12T07:37:17;44.20;;;31.83;;
9294;SDS011;4686;44.496;11.324;2022-10-12T07:39:45;49.17;;;29.97;;
9294;SDS011;4686;44.496;11.324;2022-10-12T07:42:13;33.93;;;26.20;;
9294;SDS011;4686;44.496;11.324;2022-10-12T07:44:42;36.80;;;27.67;;
9294;SDS011;4686;44.496;11.324;2022-10-12T07:47:13;39.93;;;27.80;;
9294;SDS011;4686;44.496;11.324;2022-10-12T07:49:41;34.97;;;27.07;;
9294;SDS011;4686;44.496;11.324;2022-10-12T07:52:09;35.43;;;28.57;;
9294;SDS011;4686;44.496;11.324;2022-10-12T07:54:36;46.53;;;32.70;;
9294;SDS011;4686;44.496;11.324;2022-10-12T07:57:04;39.10;;;30.63;;
9294;SDS011;4686;44.496;11.324;2022-10-12T07:59:32;40.87;;;28.40;;
9294;SDS011;4686;44.496;11.324;2022-10-12T08:02:00;41.10;;;31.13;;
9294;SDS011;4686;44.496;11.324;2022-10-12T08:04:28;45.93;;;31.57;;
9294;SDS011;4686;44.496;11.324;2022-10-12T08:06:55;35.23;;;27.77;;
9294;SDS011;4686;44.496;11.324;2022-10-12T08:09:23;39.20;;;29.97;;
9294;SDS011;4686;44.496;11.324;2022-10-12T08:11:51;49.13;;;34.30;;
9294;SDS011;4686;44.496;11.324;2022-10-12T08:14:20;41.87;;;32.60;;
9294;SDS011;4686;44.496;11.324;2022-10-12T08:16:47;55.00;;;34.00;;
9294;SDS011;4686;44.496;11.324;2022-10-12T08:19:16;42.50;;;30.80;;
9294;SDS011;4686;44.496;11.324;2022-10-12T08:21:43;43.03;;;33.40;;
9294;SDS011;4686;44.496;11.324;2022-10-12T08:24:11;43.03;;;30.90;;
9294;SDS011;4686;44.496;11.324;2022-10-12T08:26:38;46.80;;;32.97;;
9294;SDS011;4686;44.496;11.324;2022-10-12T08:29:06;40.27;;;30.70;;
9294;SDS011;4686;44.496;11.324;2022-10-12T08:31:34;46.70;;;35.20;;
9294;SDS011;4686;44.496;11.324;2022-10-12T08:34:02;49.97;;;34.57;;
9294;SDS011;4686;44.496;11.324;2022-10-12T08:36:31;44.73;;;33.70;;
9294;SDS011;4686;44.496;11.324;2022-10-12T08:38:58;47.00;;;32.37;;
9294;SDS011;4686;44.496;11.324;2022-10-12T08:41:30;48.97;;;33.47;;
9294;SDS011;4686;44.496;11.324;2022-10-12T08:44:07;43.73;;;34.10;;
9294;SDS011;4686;44.496;11.324;2022-10-12T08:46:37;44.90;;;32.63;;
9294;SDS011;4686;44.496;11.324;2022-10-12T08:49:05;38.63;;;31.80;;
9294;SDS011;4686;44.496;11.324;2022-10-12T08:51:38;42.20;;;30.87;;
9294;SDS011;4686;44.496;11.324;2022-10-12T08:54:10;43.70;;;30.47;;
9294;SDS011;4686;44.496;11.324;2022-10-12T08:56:38;42.73;;;31.80;;
9294;SDS011;4686;44.496;11.324;2022-10-12T08:59:07;39.63;;;30.83;;
9294;SDS011;4686;44.496;11.324;2022-10-12T09:01:36;45.57;;;30.87;;
9294;SDS011;4686;44.496;11.324;2022-10-12T09:04:09;36.47;;;27.90;;
9294;SDS011;4686;44.496;11.324;2022-10-12T09:06:39;36.20;;;29.10;;
9294;SDS011;4686;44.496;11.324;2022-10-12T09:09:12;40.73;;;30.93;;
9294;SDS011;4686;44.496;11.324;2022-10-12T09:11:47;44.73;;;31.57;;
9294;SDS011;4686;44.496;11.324;2022-10-12T09:14:18;45.53;;;34.23;;
9294;SDS011;4686;44.496;11.324;2022-10-12T09:16:47;55.73;;;36.10;;
9294;SDS011;4686;44.496;11.324;2022-10-12T09:19:16;52.47;;;37.20;;
9294;SDS011;4686;44.496;11.324;2022-10-12T09:21:46;46.63;;;34.80;;
9294;SDS011;4686;44.496;11.324;2022-10-12T09:24:15;45.93;;;34.77;;
9294;SDS011;4686;44.496;11.324;2022-10-12T09:26:44;44.53;;;34.57;;
9294;SDS011;4686;44.496;11.324;2022-10-12T09:29:17;45.40;;;33.77;;
9294;SDS011;4686;44.496;11.324;2022-10-12T09:31:50;41.93;;;34.33;;
9294;SDS011;4686;44.496;11.324;2022-10-12T09:34:22;54.70;;;40.10;;
9294;SDS011;4686;44.496;11.324;2022-10-12T09:36:51;55.17;;;41.53;;
9294;SDS011;4686;44.496;11.324;2022-10-12T09:39:20;57.33;;;40.37;;
9294;SDS011;4686;44.496;11.324;2022-10-12T09:41:48;54.10;;;36.47;;
9294;SDS011;4686;44.496;11.324;2022-10-12T09:44:18;56.60;;;39.10;;
9294;SDS011;4686;44.496;11.324;2022-10-12T09:46:53;59.07;;;36.70;;
9294;SDS011;4686;44.496;11.324;2022-10-12T09:49:21;51.83;;;37.23;;
9294;SDS011;4686;44.496;11.324;2022-10-12T09:51:58;51.83;;;39.70;;
9294;SDS011;4686;44.496;11.324;2022-10-12T09:54:26;56.60;;;39.77;;
9294;SDS011;4686;44.496;11.324;2022-10-12T09:56:53;47.23;;;37.60;;
9294;SDS011;4686;44.496;11.324;2022-10-12T09:59:24;60.43;;;38.30;;
9294;SDS011;4686;44.496;11.324;2022-10-12T10:01:56;55.73;;;39.57;;
9294;SDS011;4686;44.496;11.324;2022-10-12T10:04:24;55.50;;;39.40;;
9294;SDS011;4686;44.496;11.324;2022-10-12T10:06:52;52.80;;;38.30;;
9294;SDS011;4686;44.496;11.324;2022-10-12T10:09:28;49.10;;;35.13;;
9294;SDS011;4686;44.496;11.324;2022-10-12T10:11:56;52.57;;;36.07;;
9294;SDS011;4686;44.496;11.324;2022-10-12T10:14:23;38.40;;;30.40;;
9294;SDS011;4686;44.496;11.324;2022-10-12T10:16:51;40.83;;;29.17;;
9294;SDS011;4686;44.496;11.324;2022-10-12T10:19:20;49.60;;;31.13;;
9294;SDS011;4686;44.496;11.324;2022-10-12T10:21:50;38.80;;;28.67;;
9294;SDS011;4686;44.496;11.324;2022-10-12T10:24:21;38.73;;;29.40;;
9294;SDS011;4686;44.496;11.324;2022-10-12T10:26:52;36.57;;;29.13;;
9294;SDS011;4686;44.496;11.324;2022-10-12T10:29:29;37.13;;;27.50;;
9294;SDS011;4686;44.496;11.324;2022-10-12T10:32:13;38.43;;;28.23;;
9294;SDS011;4686;44.496;11.324;2022-10-12T10:34:48;41.10;;;28.23;;
9294;SDS011;4686;44.496;11.324;2022-10-12T10:37:25;37.73;;;27.90;;
9294;SDS011;4686;44.496;11.324;2022-10-12T10:39:53;34.77;;;27.83;;
9294;SDS011;4686;44.496;11.324;2022-10-12T10:42:24;35.90;;;26.70;;
9294;SDS011;4686;44.496;11.324;2022-10-12T10:44:55;38.03;;;26.87;;
9294;SDS011;4686;44.496;11.324;2022-10-12T10:47:23;45.87;;;26.67;;
9294;SDS011;4686;44.496;11.324;2022-10-12T10:49:53;32.07;;;26.23;;
9294;SDS011;4686;44.496;11.324;2022-10-12T10:52:21;41.90;;;23.90;;
9294;SDS011;4686;44.496;11.324;2022-10-12T10:54:58;32.23;;;23.80;;
9294;SDS011;4686;44.496;11.324;2022-10-12T10:57:36;32.60;;;25.00;;
9294;SDS011;4686;44.496;11.324;2022-10-12T11:00:06;34.87;;;25.17;;
9294;SDS011;4686;44.496;11.324;2022-10-12T11:02:39;31.03;;;23.53;;
9294;SDS011;4686;44.496;11.324;2022-10-12T11:05:10;29.70;;;24.67;;
9294;SDS011;4686;44.496;11.324;2022-10-12T11:07:40;39.33;;;25.40;;
9294;SDS011;4686;44.496;11.324;2022-10-12T11:10:14;35.73;;;25.10;;
9294;SDS011;4686;44.496;11.324;2022-10-12T11:12:44;33.80;;;24.70;;
9294;SDS011;4686;44.496;11.324;2022-10-12T11:15:15;30.70;;;26.27;;
9294;SDS011;4686;44.496;11.324;2022-10-12T11:17:45;38.67;;;24.43;;
9294;SDS011;4686;44.496;11.324;2022-10-12T11:23:02;31.20;;;21.00;;
9294;SDS011;4686;44.496;11.324;2022-10-12T11:25:30;32.43;;;21.60;;
9294;SDS011;4686;44.496;11.324;2022-10-12T11:28:00;28.93;;;18.07;;
9294;SDS011;4686;44.496;11.324;2022-10-12T11:30:29;31.87;;;16.77;;
9294;SDS011;4686;44.496;11.324;2022-10-12T11:33:02;23.67;;;17.47;;
9294;SDS011;4686;44.496;11.324;2022-10-12T11:35:33;29.03;;;17.43;;
9294;SDS011;4686;44.496;11.324;2022-10-12T11:38:01;24.73;;;17.10;;
9294;SDS011;4686;44.496;11.324;2022-10-12T11:40:32;19.93;;;15.10;;
9294;SDS011;4686;44.496;11.324;2022-10-12T11:43:05;27.13;;;17.17;;
9294;SDS011;4686;44.496;11.324;2022-10-12T11:45:38;32.90;;;16.83;;
9294;SDS011;4686;44.496;11.324;2022-10-12T11:48:11;27.63;;;18.07;;
9294;SDS011;4686;44.496;11.324;2022-10-12T11:50:41;21.40;;;15.60;;
9294;SDS011;4686;44.496;11.324;2022-10-12T11:53:12;22.70;;;17.57;;
9294;SDS011;4686;44.496;11.324;2022-10-12T11:55:45;21.67;;;17.70;;
9294;SDS011;4686;44.496;11.324;2022-10-12T11:58:18;22.60;;;18.40;;
9294;SDS011;4686;44.496;11.324;2022-10-12T12:00:53;29.80;;;18.10;;
9294;SDS011;4686;44.496;11.324;2022-10-12T12:03:23;32.27;;;17.30;;
9294;SDS011;4686;44.496;11.324;2022-10-12T12:05:54;32.03;;;18.63;;
9294;SDS011;4686;44.496;11.324;2022-10-12T12:08:22;23.07;;;17.70;;
9294;SDS011;4686;44.496;11.324;2022-10-12T12:10:50;27.53;;;18.47;;
9294;SDS011;4686;44.496;11.324;2022-10-12T12:13:21;23.87;;;18.07;;
9294;SDS011;4686;44.496;11.324;2022-10-12T12:21:30;29.27;;;22.77;;
9294;SDS011;4686;44.496;11.324;2022-10-12T12:23:57;31.30;;;19.47;;
9294;SDS011;4686;44.496;11.324;2022-10-12T12:26:24;32.13;;;19.23;;
9294;SDS011;4686;44.496;11.324;2022-10-12T12:29:07;43.10;;;22.90;;
9294;SDS011;4686;44.496;11.324;2022-10-12T12:31:35;27.67;;;20.50;;
9294;SDS011;4686;44.496;11.324;2022-10-12T12:34:03;26.43;;;17.90;;
9294;SDS011;4686;44.496;11.324;2022-10-12T12:36:31;25.00;;;17.47;;
9294;SDS011;4686;44.496;11.324;2022-10-12T12:38:59;26.10;;;19.37;;
9294;SDS011;4686;44.496;11.324;2022-10-12T12:41:27;26.20;;;18.90;;
9294;SDS011;4686;44.496;11.324;2022-10-12T12:44:33;33.40;;;19.20;;
9294;SDS011;4686;44.496;11.324;2022-10-12T12:49:44;26.00;;;17.30;;
9294;SDS011;4686;44.496;11.324;2022-10-12T12:52:16;22.00;;;16.13;;
9294;SDS011;4686;44.496;11.324;2022-10-12T12:54:53;30.23;;;15.73;;
9294;SDS011;4686;44.496;11.324;2022-10-12T12:57:28;29.83;;;16.87;;
9294;SDS011;4686;44.496;11.324;2022-10-12T13:00:05;29.20;;;17.20;;
9294;SDS011;4686;44.496;11.324;2022-10-12T13:05:28;26.57;;;16.50;;
9294;SDS011;4686;44.496;11.324;2022-10-12T13:08:05;21.70;;;16.57;;
9294;SDS011;4686;44.496;11.324;2022-10-12T13:10:37;23.47;;;16.23;;
9294;SDS011;4686;44.496;11.324;2022-10-12T13:13:15;24.17;;;18.97;;
9294;SDS011;4686;44.496;11.324;2022-10-12T13:15:53;23.17;;;15.10;;
9294;SDS011;4686;44.496;11.324;2022-10-12T13:18:30;19.20;;;13.43;;
9294;SDS011;4686;44.496;11.324;2022-10-12T13:21:03;22.60;;;13.90;;
9294;SDS011;4686;44.496;11.324;2022-10-12T13:23:31;21.97;;;13.90;;
9294;SDS011;4686;44.496;11.324;2022-10-12T13:25:59;18.20;;;14.57;;
9294;SDS011;4686;44.496;11.324;2022-10-12T13:28:28;18.60;;;15.37;;
9294;SDS011;4686;44.496;11.324;2022-10-12T13:30:59;23.50;;;14.17;;
9294;SDS011;4686;44.496;11.324;2022-10-12T13:33:29;19.80;;;13.70;;
9294;SDS011;4686;44.496;11.324;2022-10-12T13:35:58;16.73;;;12.87;;
9294;SDS011;4686;44.496;11.324;2022-10-12T13:38:27;21.70;;;15.00;;
9294;SDS011;4686;44.496;11.324;2022-10-12T13:40:56;17.20;;;13.27;;
9294;SDS011;4686;44.496;11.324;2022-10-12T13:43:27;19.83;;;14.70;;
9294;SDS011;4686;44.496;11.324;2022-10-12T13:45:56;19.07;;;13.93;;
9294;SDS011;4686;44.496;11.324;2022-10-12T13:48:25;22.80;;;15.43;;
9294;SDS011;4686;44.496;11.324;2022-10-12T13:50:52;19.20;;;13.73;;
9294;SDS011;4686;44.496;11.324;2022-10-12T13:53:20;18.63;;;13.50;;
9294;SDS011;4686;44.496;11.324;2022-10-12T13:55:56;25.50;;;14.77;;
9294;SDS011;4686;44.496;11.324;2022-10-12T13:58:26;21.53;;;12.80;;
9294;SDS011;4686;44.496;11.324;2022-10-12T14:00:54;19.57;;;12.47;;
9294;SDS011;4686;44.496;11.324;2022-10-12T14:03:23;19.03;;;12.97;;
9294;SDS011;4686;44.496;11.324;2022-10-12T14:05:52;23.40;;;12.63;;
9294;SDS011;4686;44.496;11.324;2022-10-12T14:08:20;17.43;;;14.47;;
9294;SDS011;4686;44.496;11.324;2022-10-12T14:10:57;28.90;;;13.60;;
9294;SDS011;4686;44.496;11.324;2022-10-12T14:13:26;19.07;;;14.67;;
9294;SDS011;4686;44.496;11.324;2022-10-12T14:15:54;24.40;;;16.77;;
9294;SDS011;4686;44.496;11.324;2022-10-12T14:18:29;17.37;;;12.00;;
9294;SDS011;4686;44.496;11.324;2022-10-12T14:21:04;19.33;;;12.80;;
9294;SDS011;4686;44.496;11.324;2022-10-12T14:23:32;18.57;;;12.00;;
9294;SDS011;4686;44.496;11.324;2022-10-12T14:25:59;15.87;;;11.60;;
9294;SDS011;4686;44.496;11.324;2022-10-12T14:28:27;16.07;;;10.50;;
9294;SDS011;4686;44.496;11.324;2022-10-12T14:30:55;14.10;;;11.43;;
9294;SDS011;4686;44.496;11.324;2022-10-12T14:33:23;12.97;;;10.60;;
9294;SDS011;4686;44.496;11.324;2022-10-12T14:35:51;18.43;;;10.30;;
9294;SDS011;4686;44.496;11.324;2022-10-12T14:38:37;15.90;;;11.40;;
9294;SDS011;4686;44.496;11.324;2022-10-12T14:44:01;25.00;;;18.80;;
9294;SDS011;4686;44.496;11.324;2022-10-12T14:46:28;13.70;;;11.63;;
9294;SDS011;4686;44.496;11.324;2022-10-12T14:48:55;14.13;;;11.20;;
9294;SDS011;4686;44.496;11.324;2022-10-12T14:51:23;14.53;;;11.87;;
9294;SDS011;4686;44.496;11.324;2022-10-12T14:53:59;16.83;;;11.57;;
9294;SDS011;4686;44.496;11.324;2022-10-12T14:56:26;19.30;;;10.77;;
9294;SDS011;4686;44.496;11.324;2022-10-12T14:58:53;16.57;;;10.23;;
9294;SDS011;4686;44.496;11.324;2022-10-12T15:01:20;13.37;;;10.73;;
9294;SDS011;4686;44.496;11.324;2022-10-12T15:03:48;14.40;;;9.87;;
9294;SDS011;4686;44.496;11.324;2022-10-12T15:06:15;20.77;;;10.10;;